Time;durP1;ratioP1;P1;durP2;ratioP2;P2;SDS_P1;SDS_P2;PMS_P1;PMS_P2;Temp;Humidity;BMP_temperature;BMP_pressure;BME280_temperature;BME280_humidity;BME280_pressure;Samples;Min_cycle;Max_cycle;Signal;HPM_P1;HPM_P2
2023/10/04 00:00:15;;;;;;;;;;;13.10;99.90;;;;;;5043519;28;19971;-31
2023/10/04 00:02:45;;;;;;;;;;;13.10;99.90;;;;;;5021529;28;19925;-31
2023/10/04 00:05:14;;;;;;;;;;;13.10;99.90;;;;;;5045006;28;20007;-31
2023/10/04 00:07:42;;;;;;;;;;;13.10;99.90;;;;;;5038442;28;20008;-31
2023/10/04 00:10:11;;;;;;;;;;;13.10;99.90;;;;;;5051561;28;20015;-31
2023/10/04 00:12:38;;;;;;;;;;;13.10;99.90;;;;;;5033400;28;19925;-32
2023/10/04 00:15:05;;;;;;;;;;;13.10;99.90;;;;;;5038894;28;19929;-32
2023/10/04 00:17:32;;;;;;;;;;;13.10;99.90;;;;;;5052043;28;19924;-31
2023/10/04 00:19:59;;;;;;;;;;;13.10;99.90;;;;;;5032674;28;20354;-31
2023/10/04 00:22:26;;;;;;;;;;;13.10;99.90;;;;;;5034136;28;20447;-31
2023/10/04 00:24:52;;;;;;;;;;;13.10;99.90;;;;;;5034127;28;19925;-31
2023/10/04 00:27:20;;;;;;;;;;;13.10;99.90;;;;;;5035383;28;19924;-33
2023/10/04 00:29:47;;;;;;;;;;;13.10;99.90;;;;;;5034699;28;19933;-31
2023/10/04 00:32:14;;;;;;;;;;;13.10;99.90;;;;;;5034696;28;19925;-31
2023/10/04 00:34:40;;;;;;;;;;;13.10;99.90;;;;;;5042706;28;19924;-32
2023/10/04 00:37:08;;;;;;;;;;;13.00;99.90;;;;;;5054317;28;20002;-31
2023/10/04 00:39:36;;;;;;;;;;;13.00;99.90;;;;;;5047604;28;19925;-31
2023/10/04 00:42:03;;;;;;;;;;;13.00;99.90;;;;;;5043038;28;19948;-31
2023/10/04 00:44:34;;;;;;;;;;;13.00;99.90;;;;;;5054203;28;19951;-32
2023/10/04 00:47:02;;;;;;;;;;;13.00;99.90;;;;;;5055101;28;20328;-32
2023/10/04 00:49:31;;;;;;;;;;;12.90;99.90;;;;;;5040099;28;20024;-31
2023/10/04 00:51:58;;;;;;;;;;;12.90;99.90;;;;;;5035851;28;19925;-31
2023/10/04 00:54:25;;;;;;;;;;;12.90;99.90;;;;;;5045772;28;20023;-31
2023/10/04 00:56:52;;;;;;;;;;;12.80;99.90;;;;;;5033894;28;19925;-31
2023/10/04 00:59:19;;;;;;;;;;;12.90;99.90;;;;;;5033759;28;19925;-32
2023/10/04 01:01:47;;;;;;;;;;;12.90;99.90;;;;;;5034155;28;19975;-31
2023/10/04 01:04:14;;;;;;;;;;;12.80;99.90;;;;;;5041064;28;19929;-31
2023/10/04 01:06:41;;;;;;;;;;;12.80;99.90;;;;;;5050978;28;19925;-31
2023/10/04 01:09:08;;;;;;;;;;;12.80;99.90;;;;;;5052727;28;20035;-31
2023/10/04 01:11:35;;;;;;;;;;;12.80;99.90;;;;;;5040992;28;19987;-30
2023/10/04 01:14:18;;;;;;;;;;;12.80;99.90;;;;;;5032733;28;19933;-31
2023/10/04 01:16:46;;;;;;;;;;;12.80;99.90;;;;;;5077695;28;19925;-33
2023/10/04 01:19:15;;;;;;;;;;;12.90;99.90;;;;;;5053831;28;19925;-32
2023/10/04 01:21:42;;;;;;;;;;;12.90;99.90;;;;;;5047245;28;19931;-31
2023/10/04 01:24:11;;;;;;;;;;;12.90;99.90;;;;;;5040201;28;19925;-31
2023/10/04 01:26:38;;;;;;;;;;;12.90;99.90;;;;;;5037845;28;19925;-31
2023/10/04 01:29:08;;;;;;;;;;;12.90;99.90;;;;;;5037360;28;19932;-32
2023/10/04 01:31:35;;;;;;;;;;;12.80;99.90;;;;;;5034099;28;19931;-32
2023/10/04 01:34:03;;;;;;;;;;;12.80;99.90;;;;;;5046298;28;19931;-31
2023/10/04 01:36:31;;;;;;;;;;;12.80;99.90;;;;;;5054369;28;20019;-32
2023/10/04 01:38:58;;;;;;;;;;;12.80;99.90;;;;;;5053787;28;20416;-31
2023/10/04 01:41:26;;;;;;;;;;;12.80;99.90;;;;;;5046294;28;19925;-31
2023/10/04 01:44:00;;;;;;;;;;;12.80;99.90;;;;;;5034437;28;20296;-31
2023/10/04 01:46:27;;;;;;;;;;;12.80;99.90;;;;;;5033738;28;19929;-31
2023/10/04 01:48:56;;;;;;;;;;;12.80;99.90;;;;;;5033098;28;19986;-30
2023/10/04 01:51:26;;;;;;;;;;;12.80;99.90;;;;;;5043978;28;20277;-32
2023/10/04 01:53:53;;;;;;;;;;;12.80;99.90;;;;;;5052919;28;19925;-33
2023/10/04 01:56:20;;;;;;;;;;;12.80;99.90;;;;;;5053086;28;19929;-31
2023/10/04 01:58:48;;;;;;;;;;;12.80;99.90;;;;;;5053892;28;19932;-31
2023/10/04 02:01:15;;;;;;;;;;;12.80;99.90;;;;;;5052367;28;19924;-32
2023/10/04 02:03:42;;;;;;;;;;;12.80;99.90;;;;;;5039649;28;19925;-31
2023/10/04 02:06:09;;;;;;;;;;;12.80;99.90;;;;;;5032427;28;19975;-31
2023/10/04 02:08:35;;;;;;;;;;;12.80;99.90;;;;;;5032963;28;19925;-31
2023/10/04 02:11:05;;;;;;;;;;;12.80;99.90;;;;;;5033772;28;19925;-31
2023/10/04 02:13:32;;;;;;;;;;;12.80;99.90;;;;;;5033477;28;19925;-31
2023/10/04 02:16:02;;;;;;;;;;;12.80;99.90;;;;;;5033673;28;19929;-31
2023/10/04 02:18:29;;;;;;;;;;;12.80;99.90;;;;;;5038529;28;19931;-31
2023/10/04 02:20:56;;;;;;;;;;;12.80;99.90;;;;;;5050349;28;19929;-32
2023/10/04 02:23:23;;;;;;;;;;;12.90;99.90;;;;;;5033562;28;19929;-31
2023/10/04 02:25:49;;;;;;;;;;;12.90;99.90;;;;;;5032302;28;19929;-30
2023/10/04 02:28:22;;;;;;;;;;;12.90;99.90;;;;;;5036016;28;19925;-31
2023/10/04 02:30:49;;;;;;;;;;;12.90;99.90;;;;;;5052125;28;19932;-32
2023/10/04 02:33:17;;;;;;;;;;;13.00;99.90;;;;;;5040059;28;20385;-31
2023/10/04 02:35:44;;;;;;;;;;;13.00;99.90;;;;;;5031780;28;19929;-31
2023/10/04 02:38:16;;;;;;;;;;;13.00;99.90;;;;;;5030834;28;19929;-31
2023/10/04 02:40:43;;;;;;;;;;;13.00;99.90;;;;;;5032677;28;19976;-32
2023/10/04 02:43:10;;;;;;;;;;;13.00;99.90;;;;;;5031043;28;19925;-31
2023/10/04 02:45:37;;;;;;;;;;;13.00;99.90;;;;;;5031785;28;19975;-32
2023/10/04 02:48:05;;;;;;;;;;;13.00;99.90;;;;;;5025383;28;20000;-30
2023/10/04 02:50:33;;;;;;;;;;;13.00;99.90;;;;;;5033649;28;19925;-31
2023/10/04 02:53:00;;;;;;;;;;;13.00;99.90;;;;;;5050042;28;19925;-31
2023/10/04 02:55:26;;;;;;;;;;;13.00;99.90;;;;;;5038151;28;19925;-30
2023/10/04 02:57:55;;;;;;;;;;;13.00;99.90;;;;;;5051182;28;20403;-30
2023/10/04 03:00:22;;;;;;;;;;;13.00;99.90;;;;;;5034030;28;19929;-29
2023/10/04 03:02:49;;;;;;;;;;;13.00;99.90;;;;;;5030977;28;20355;-30
2023/10/04 03:05:18;;;;;;;;;;;13.00;99.90;;;;;;5041089;28;19925;-31
2023/10/04 03:07:46;;;;;;;;;;;12.90;99.90;;;;;;5032471;28;19932;-31
2023/10/04 03:10:14;;;;;;;;;;;13.00;99.90;;;;;;5030168;28;20396;-31
2023/10/04 03:12:41;;;;;;;;;;;12.90;99.90;;;;;;5031386;28;19925;-31
2023/10/04 03:15:10;;;;;;;;;;;12.90;99.90;;;;;;5031287;28;19925;-32
2023/10/04 03:17:37;;;;;;;;;;;12.90;99.90;;;;;;5034368;28;19979;-31
2023/10/04 03:20:10;;;;;;;;;;;12.80;99.90;;;;;;5042819;28;19991;-30
2023/10/04 03:22:42;;;;;;;;;;;12.80;99.90;;;;;;5039864;28;19925;-31
2023/10/04 03:25:15;;;;;;;;;;;12.80;99.90;;;;;;5035695;28;19972;-31
2023/10/04 03:27:43;;;;;;;;;;;12.70;99.90;;;;;;5064629;28;19979;-32
2023/10/04 03:30:14;;;;;;;;;;;12.70;99.90;;;;;;5035989;28;19994;-30
2023/10/04 03:32:41;;;;;;;;;;;12.70;99.90;;;;;;5033282;28;19932;-30
2023/10/04 03:35:08;;;;;;;;;;;12.60;99.90;;;;;;5035117;28;19925;-31
2023/10/04 03:37:39;;;;;;;;;;;12.60;99.90;;;;;;5038349;28;19956;-31
2023/10/04 03:40:07;;;;;;;;;;;12.60;99.90;;;;;;5033103;28;19975;-31
2023/10/04 03:42:35;;;;;;;;;;;12.60;99.90;;;;;;5032281;28;19925;-31
2023/10/04 03:45:02;;;;;;;;;;;12.50;99.90;;;;;;5023560;28;19937;-31
2023/10/04 03:47:29;;;;;;;;;;;12.50;99.90;;;;;;5030077;28;19929;-31
2023/10/04 03:49:55;;;;;;;;;;;12.50;99.90;;;;;;5038910;28;19967;-31
2023/10/04 03:52:23;;;;;;;;;;;12.40;99.90;;;;;;5052022;28;19975;-31
2023/10/04 03:54:50;;;;;;;;;;;12.40;99.90;;;;;;5035383;28;19972;-31
2023/10/04 03:57:16;;;;;;;;;;;12.40;99.90;;;;;;5036187;28;19926;-30
2023/10/04 03:59:45;;;;;;;;;;;12.40;99.90;;;;;;5035146;28;19932;-32
2023/10/04 04:02:12;;;;;;;;;;;12.40;99.90;;;;;;5036448;28;19936;-31
2023/10/04 04:04:41;;;;;;;;;;;12.30;99.90;;;;;;5035734;28;19925;-32
2023/10/04 04:07:07;;;;;;;;;;;12.30;99.90;;;;;;5035729;28;19925;-31
2023/10/04 04:09:34;;;;;;;;;;;12.30;99.90;;;;;;5035447;28;19992;-31
2023/10/04 04:12:01;;;;;;;;;;;12.30;99.90;;;;;;5050980;28;19925;-31
2023/10/04 04:14:29;;;;;;;;;;;12.30;99.90;;;;;;5036104;28;19929;-32
2023/10/04 04:16:57;;;;;;;;;;;12.30;99.90;;;;;;5033523;28;19964;-31
2023/10/04 04:19:26;;;;;;;;;;;12.30;99.90;;;;;;5034908;28;19925;-32
2023/10/04 04:21:57;;;;;;;;;;;12.30;99.90;;;;;;5034241;28;19925;-31
2023/10/04 04:24:25;;;;;;;;;;;12.30;99.90;;;;;;5034697;28;19927;-31
2023/10/04 04:26:58;;;;;;;;;;;12.30;99.90;;;;;;5034796;28;20389;-31
2023/10/04 04:29:24;;;;;;;;;;;12.30;99.90;;;;;;5034995;28;19932;-31
2023/10/04 04:31:52;;;;;;;;;;;12.30;99.90;;;;;;5031944;28;19925;-31
2023/10/04 04:34:20;;;;;;;;;;;12.40;99.90;;;;;;5039040;28;19924;-31
2023/10/04 04:36:49;;;;;;;;;;;12.40;99.90;;;;;;5037848;28;20360;-31
2023/10/04 04:39:18;;;;;;;;;;;12.40;99.90;;;;;;5038120;28;19979;-31
2023/10/04 04:41:45;;;;;;;;;;;12.40;99.90;;;;;;5035497;28;19929;-33
2023/10/04 04:44:19;;;;;;;;;;;12.40;99.90;;;;;;5034348;28;19929;-31
2023/10/04 04:46:47;;;;;;;;;;;12.40;99.90;;;;;;5035373;28;20030;-31
2023/10/04 04:49:14;;;;;;;;;;;12.40;99.90;;;;;;5067594;28;19932;-31
2023/10/04 04:51:42;;;;;;;;;;;12.40;99.90;;;;;;5030610;28;20381;-32
2023/10/04 04:54:10;;;;;;;;;;;12.40;99.90;;;;;;5033376;28;19933;-31
2023/10/04 04:56:39;;;;;;;;;;;12.50;99.90;;;;;;5032514;28;19926;-30
2023/10/04 04:59:08;;;;;;;;;;;12.50;99.90;;;;;;5039645;28;20012;-31
2023/10/04 05:01:38;;;;;;;;;;;12.50;99.90;;;;;;5037518;28;19940;-31
2023/10/04 05:04:06;;;;;;;;;;;12.50;99.90;;;;;;5034972;28;19931;-31
2023/10/04 05:06:33;;;;;;;;;;;12.50;99.90;;;;;;5083454;28;19998;-32
2023/10/04 05:09:01;;;;;;;;;;;12.50;99.90;;;;;;5048724;28;19978;-30
2023/10/04 05:11:28;;;;;;;;;;;12.50;99.90;;;;;;5076471;28;20447;-31
2023/10/04 05:13:56;;;;;;;;;;;12.40;99.90;;;;;;5040191;28;19933;-30
2023/10/04 05:16:23;;;;;;;;;;;12.40;99.90;;;;;;5036428;28;20276;-31
2023/10/04 05:18:50;;;;;;;;;;;12.40;99.90;;;;;;5034383;28;20388;-31
2023/10/04 05:21:16;;;;;;;;;;;12.40;99.90;;;;;;5034358;28;20003;-31
2023/10/04 05:23:43;;;;;;;;;;;12.40;99.90;;;;;;5045563;28;19925;-32
2023/10/04 05:26:12;;;;;;;;;;;12.40;99.90;;;;;;5029428;28;19971;-31
2023/10/04 05:28:39;;;;;;;;;;;12.40;99.90;;;;;;5024331;28;20024;-32
2023/10/04 05:31:08;;;;;;;;;;;12.30;99.90;;;;;;5029948;28;19979;-31
2023/10/04 05:33:35;;;;;;;;;;;12.40;99.90;;;;;;5031066;28;19925;-31
2023/10/04 05:36:03;;;;;;;;;;;12.40;99.90;;;;;;5033035;28;19929;-31
2023/10/04 05:38:32;;;;;;;;;;;12.40;99.90;;;;;;5031963;28;19932;-31
2023/10/04 05:41:00;;;;;;;;;;;12.30;99.90;;;;;;5031548;28;20463;-31
2023/10/04 05:43:29;;;;;;;;;;;12.30;99.90;;;;;;5032281;28;20313;-31
2023/10/04 05:45:57;;;;;;;;;;;12.30;99.90;;;;;;5029779;28;20296;-32
2023/10/04 05:48:24;;;;;;;;;;;12.30;99.90;;;;;;5030319;28;20297;-31
2023/10/04 05:50:50;;;;;;;;;;;12.40;99.90;;;;;;5032356;28;20423;-31
2023/10/04 05:53:19;;;;;;;;;;;12.40;99.90;;;;;;5030363;28;19925;-31
2023/10/04 05:55:46;;;;;;;;;;;12.40;99.90;;;;;;5029444;28;19929;-32
2023/10/04 05:58:13;;;;;;;;;;;12.40;99.90;;;;;;5031254;28;19952;-32
2023/10/04 06:00:41;;;;;;;;;;;12.50;99.90;;;;;;5030291;28;19925;-32
2023/10/04 06:03:08;;;;;;;;;;;12.40;99.90;;;;;;5030041;28;19925;-32
2023/10/04 06:05:35;;;;;;;;;;;12.50;99.90;;;;;;5029976;28;19971;-32
2023/10/04 06:08:06;;;;;;;;;;;12.50;99.90;;;;;;5031461;28;20428;-32
2023/10/04 06:10:32;;;;;;;;;;;12.50;99.90;;;;;;5030913;28;19968;-32
2023/10/04 06:13:18;;;;;;;;;;;12.50;99.90;;;;;;5031363;28;19932;-32
2023/10/04 06:15:46;;;;;;;;;;;12.50;99.90;;;;;;5031450;28;19973;-33
2023/10/04 06:18:13;;;;;;;;;;;12.50;99.90;;;;;;5029965;28;19925;-31
2023/10/04 06:20:40;;;;;;;;;;;12.60;99.90;;;;;;5029260;28;19933;-32
2023/10/04 06:23:08;;;;;;;;;;;12.60;99.90;;;;;;5029817;28;19932;-33
2023/10/04 06:25:35;;;;;;;;;;;12.60;99.90;;;;;;5031479;28;20686;-31
2023/10/04 06:28:03;;;;;;;;;;;12.60;99.90;;;;;;5028742;28;20440;-33
2023/10/04 06:30:31;;;;;;;;;;;12.60;99.90;;;;;;5031112;28;19932;-31
2023/10/04 06:32:59;;;;;;;;;;;12.60;99.90;;;;;;5030298;28;20399;-31
2023/10/04 06:35:26;;;;;;;;;;;12.70;99.90;;;;;;5029124;28;19925;-31
2023/10/04 06:37:53;;;;;;;;;;;12.70;99.90;;;;;;5029147;28;19945;-31
2023/10/04 06:40:23;;;;;;;;;;;12.70;99.90;;;;;;5030590;28;20075;-31
2023/10/04 06:42:50;;;;;;;;;;;12.70;99.90;;;;;;5030163;28;20330;-32
2023/10/04 06:45:17;;;;;;;;;;;12.80;99.90;;;;;;5030248;28;19925;-32
2023/10/04 06:47:44;;;;;;;;;;;12.80;99.90;;;;;;5024345;28;19987;-32
2023/10/04 06:50:18;;;;;;;;;;;12.80;99.90;;;;;;5030833;28;19968;-32
2023/10/04 06:52:45;;;;;;;;;;;12.80;99.90;;;;;;5029683;28;19925;-33
2023/10/04 06:55:11;;;;;;;;;;;12.90;99.90;;;;;;5027677;28;19932;-32
2023/10/04 06:57:39;;;;;;;;;;;12.80;99.90;;;;;;5030290;28;19994;-31
2023/10/04 07:00:13;;;;;;;;;;;12.90;99.90;;;;;;5029393;28;20016;-31
2023/10/04 07:02:41;;;;;;;;;;;12.90;99.90;;;;;;5029250;28;19925;-31
2023/10/04 07:05:08;;;;;;;;;;;13.00;99.90;;;;;;5026717;28;19975;-32
2023/10/04 07:07:36;;;;;;;;;;;13.00;99.90;;;;;;5029431;28;20020;-31
2023/10/04 07:10:05;;;;;;;;;;;13.00;99.90;;;;;;5029312;28;19939;-32
2023/10/04 07:12:31;;;;;;;;;;;13.00;99.90;;;;;;5030006;28;20008;-32
2023/10/04 07:14:58;;;;;;;;;;;13.00;99.90;;;;;;5029075;28;19925;-31
2023/10/04 07:17:25;;;;;;;;;;;13.10;99.90;;;;;;5029208;28;19933;-32
2023/10/04 07:19:51;;;;;;;;;;;13.20;99.90;;;;;;5029276;28;19925;-32
2023/10/04 07:22:21;;;;;;;;;;;13.10;99.90;;;;;;5030209;28;19929;-31
2023/10/04 07:24:49;;;;;;;;;;;13.20;99.90;;;;;;5029106;28;19932;-32
2023/10/04 07:27:16;;;;;;;;;;;13.20;99.90;;;;;;5056042;28;19928;-33
2023/10/04 07:29:43;;;;;;;;;;;13.20;99.90;;;;;;5029881;28;20361;-34
2023/10/04 07:32:09;;;;;;;;;;;13.20;99.90;;;;;;5030152;28;20270;-31
2023/10/04 07:34:36;;;;;;;;;;;13.30;99.90;;;;;;5029860;28;20376;-33
2023/10/04 07:37:03;;;;;;;;;;;13.30;99.90;;;;;;5029599;28;19929;-34
2023/10/04 07:39:32;;;;;;;;;;;13.40;99.90;;;;;;5029155;28;19932;-32
2023/10/04 07:42:00;;;;;;;;;;;13.60;99.90;;;;;;5029430;28;19925;-31
2023/10/04 07:44:32;;;;;;;;;;;13.60;99.90;;;;;;5029738;28;19931;-31
2023/10/04 07:46:59;;;;;;;;;;;13.70;99.90;;;;;;5030349;28;20012;-31
2023/10/04 07:49:26;;;;;;;;;;;13.70;99.90;;;;;;5029806;28;19929;-32
2023/10/04 07:51:52;;;;;;;;;;;13.80;99.90;;;;;;5031145;28;20353;-32
2023/10/04 07:54:19;;;;;;;;;;;13.90;99.90;;;;;;5031092;28;19925;-31
2023/10/04 07:56:46;;;;;;;;;;;14.00;99.90;;;;;;5030533;28;19987;-32
2023/10/04 07:59:14;;;;;;;;;;;14.10;99.90;;;;;;5030820;28;19975;-31
2023/10/04 08:01:40;;;;;;;;;;;14.20;99.90;;;;;;5030966;28;19929;-32
2023/10/04 08:04:07;;;;;;;;;;;14.40;99.90;;;;;;5031208;28;19975;-33
2023/10/04 08:06:35;;;;;;;;;;;14.50;99.90;;;;;;5032089;28;19929;-32
2023/10/04 08:09:04;;;;;;;;;;;14.50;99.90;;;;;;5031129;28;19979;-32
2023/10/04 08:11:31;;;;;;;;;;;14.60;99.90;;;;;;5032001;28;20297;-33
2023/10/04 08:13:58;;;;;;;;;;;14.70;99.90;;;;;;5031918;28;20443;-32
2023/10/04 08:16:27;;;;;;;;;;;14.80;99.90;;;;;;5030484;28;20365;-32
2023/10/04 08:18:55;;;;;;;;;;;14.90;99.90;;;;;;5030785;28;20396;-33
2023/10/04 08:21:22;;;;;;;;;;;15.00;99.90;;;;;;5030722;28;20329;-32
2023/10/04 08:23:49;;;;;;;;;;;15.10;99.90;;;;;;5031011;28;19975;-33
2023/10/04 08:26:16;;;;;;;;;;;15.20;99.90;;;;;;5030957;28;19999;-32
2023/10/04 08:28:43;;;;;;;;;;;15.30;99.90;;;;;;5031891;28;19925;-35
2023/10/04 08:31:11;;;;;;;;;;;15.40;99.90;;;;;;5030858;28;19971;-33
2023/10/04 08:33:39;;;;;;;;;;;15.40;99.90;;;;;;5032084;28;19987;-31
2023/10/04 08:36:10;;;;;;;;;;;15.50;99.90;;;;;;5031724;28;19979;-31
2023/10/04 08:38:36;;;;;;;;;;;15.60;99.90;;;;;;5031974;28;19929;-32
2023/10/04 08:41:04;;;;;;;;;;;15.70;99.90;;;;;;5031467;28;19998;-31
2023/10/04 08:43:30;;;;;;;;;;;15.80;99.90;;;;;;5033903;28;19925;-32
2023/10/04 08:45:57;;;;;;;;;;;15.90;99.90;;;;;;5035577;28;19932;-31
2023/10/04 08:48:26;;;;;;;;;;;16.00;99.90;;;;;;5035195;28;19940;-31
2023/10/04 08:50:56;;;;;;;;;;;16.10;99.90;;;;;;5035331;28;20324;-31
2023/10/04 08:53:26;;;;;;;;;;;16.10;99.90;;;;;;5034175;28;20016;-31
2023/10/04 08:55:54;;;;;;;;;;;16.20;99.90;;;;;;5034964;28;19981;-31
2023/10/04 08:58:21;;;;;;;;;;;16.20;99.90;;;;;;5033847;28;19925;-32
2023/10/04 09:00:48;;;;;;;;;;;16.30;99.90;;;;;;5034272;28;19979;-31
2023/10/04 09:03:14;;;;;;;;;;;16.30;99.90;;;;;;5034061;28;20012;-31
2023/10/04 09:05:46;;;;;;;;;;;16.40;99.90;;;;;;5034048;28;19929;-31
2023/10/04 09:08:16;;;;;;;;;;;16.40;99.90;;;;;;5033783;28;20442;-31
2023/10/04 09:10:42;;;;;;;;;;;16.60;99.90;;;;;;5035008;28;19924;-31
2023/10/04 09:13:10;;;;;;;;;;;16.60;99.90;;;;;;5034044;28;20431;-31
2023/10/04 09:15:37;;;;;;;;;;;16.70;99.90;;;;;;5034910;28;20015;-32
2023/10/04 09:18:04;;;;;;;;;;;16.60;99.90;;;;;;5033887;28;20015;-32
2023/10/04 09:20:32;;;;;;;;;;;16.70;99.90;;;;;;5034529;28;19996;-32
2023/10/04 09:22:59;;;;;;;;;;;16.70;99.90;;;;;;5034660;28;20381;-32
2023/10/04 09:25:36;;;;;;;;;;;16.80;99.90;;;;;;5033498;28;19925;-32
2023/10/04 09:28:04;;;;;;;;;;;16.80;99.90;;;;;;5033886;28;20217;-32
2023/10/04 09:30:33;;;;;;;;;;;16.90;99.90;;;;;;5034570;28;19987;-32
2023/10/04 09:33:00;;;;;;;;;;;17.00;99.90;;;;;;5033451;28;19979;-32
2023/10/04 09:35:36;;;;;;;;;;;17.00;99.90;;;;;;5033179;28;20381;-34
2023/10/04 09:38:14;;;;;;;;;;;17.10;99.90;;;;;;5033471;28;20380;-32
2023/10/04 09:40:51;;;;;;;;;;;17.10;99.90;;;;;;5033511;28;19929;-32
2023/10/04 09:43:18;;;;;;;;;;;17.10;99.90;;;;;;5033416;28;19931;-32
2023/10/04 09:45:55;;;;;;;;;;;17.20;99.90;;;;;;5034185;28;19933;-32
2023/10/04 09:48:23;;;;;;;;;;;17.20;99.90;;;;;;5033145;28;20020;-32
2023/10/04 09:50:50;;;;;;;;;;;17.30;99.90;;;;;;5032869;28;20435;-32
2023/10/04 09:53:17;;;;;;;;;;;17.30;99.90;;;;;;5033907;28;20412;-32
2023/10/04 09:55:43;;;;;;;;;;;17.30;99.90;;;;;;5032712;28;19964;-33
2023/10/04 09:58:13;;;;;;;;;;;17.40;99.90;;;;;;5033936;28;19925;-31
2023/10/04 10:00:40;;;;;;;;;;;17.40;99.90;;;;;;5033958;28;19932;-32
2023/10/04 10:03:08;;;;;;;;;;;17.50;99.90;;;;;;5032830;28;19940;-34
2023/10/04 10:05:35;;;;;;;;;;;17.50;99.90;;;;;;5032736;28;20120;-32
2023/10/04 10:08:04;;;;;;;;;;;17.60;99.90;;;;;;5033909;28;19925;-32
2023/10/04 10:10:33;;;;;;;;;;;17.60;99.90;;;;;;5032859;28;19983;-32
2023/10/04 10:13:00;;;;;;;;;;;17.70;99.90;;;;;;5029606;28;20369;-32
2023/10/04 10:15:28;;;;;;;;;;;17.70;99.90;;;;;;5028505;28;20008;-32
2023/10/04 10:17:54;;;;;;;;;;;17.80;99.90;;;;;;5031128;28;19933;-32
2023/10/04 10:20:21;;;;;;;;;;;17.80;99.90;;;;;;5028959;28;19968;-32
2023/10/04 10:23:07;;;;;;;;;;;17.80;99.90;;;;;;5033837;28;19975;-32
2023/10/04 10:25:33;;;;;;;;;;;17.70;99.90;;;;;;5053385;28;19928;-32
2023/10/04 10:28:01;;;;;;;;;;;17.70;99.90;;;;;;5040175;28;19925;-32
2023/10/04 10:30:29;;;;;;;;;;;17.70;99.90;;;;;;5032262;28;19925;-32
2023/10/04 10:32:56;;;;;;;;;;;17.60;99.90;;;;;;5027698;28;20018;-32
2023/10/04 10:35:44;;;;;;;;;;;17.70;99.90;;;;;;5031188;28;20376;-31
2023/10/04 10:38:29;;;;;;;;;;;17.60;99.90;;;;;;5032866;28;19925;-32
2023/10/04 10:40:56;;;;;;;;;;;17.70;99.90;;;;;;5031011;28;20401;-32
2023/10/04 10:43:23;;;;;;;;;;;17.80;99.90;;;;;;5032130;28;19925;-32
2023/10/04 10:45:51;;;;;;;;;;;17.80;99.90;;;;;;5033032;28;19925;-32
2023/10/04 10:48:17;;;;;;;;;;;17.90;99.90;;;;;;5032802;28;19925;-31
2023/10/04 10:50:44;;;;;;;;;;;17.90;99.90;;;;;;5013486;28;20282;-32
2023/10/04 10:53:11;;;;;;;;;;;18.00;99.90;;;;;;5051383;28;19928;-33
2023/10/04 10:55:38;;;;;;;;;;;18.00;99.90;;;;;;5045478;28;19929;-33
2023/10/04 10:58:06;;;;;;;;;;;17.90;99.90;;;;;;5031835;28;19971;-32
2023/10/04 11:00:33;;;;;;;;;;;17.90;99.90;;;;;;5029176;28;19926;-32
2023/10/04 11:03:02;;;;;;;;;;;17.90;99.90;;;;;;5030386;28;19975;-32
2023/10/04 11:05:29;;;;;;;;;;;17.90;99.90;;;;;;5029504;28;20075;-32
2023/10/04 11:07:56;;;;;;;;;;;17.80;99.90;;;;;;5016106;28;19953;-32
2023/10/04 11:10:24;;;;;;;;;;;17.80;99.90;;;;;;5064833;28;19925;-31
2023/10/04 11:12:51;;;;;;;;;;;17.70;99.90;;;;;;5062615;28;20313;-34
2023/10/04 11:15:20;;;;;;;;;;;17.60;99.90;;;;;;5031044;28;20040;-31
2023/10/04 11:17:47;;;;;;;;;;;17.60;99.90;;;;;;5029378;28;20428;-31
2023/10/04 11:20:17;;;;;;;;;;;17.60;99.90;;;;;;5029008;28;19925;-33
2023/10/04 11:22:46;;;;;;;;;;;17.60;99.90;;;;;;5031765;28;21431;-31
2023/10/04 11:25:13;;;;;;;;;;;17.60;99.90;;;;;;5029459;28;20384;-31
2023/10/04 11:27:41;;;;;;;;;;;17.60;99.90;;;;;;5030076;28;19976;-31
2023/10/04 11:30:09;;;;;;;;;;;17.60;99.90;;;;;;5027574;28;19929;-31
2023/10/04 11:32:36;;;;;;;;;;;17.60;99.90;;;;;;5028927;28;19985;-31
2023/10/04 11:35:08;;;;;;;;;;;17.70;99.90;;;;;;5028676;28;19983;-32
2023/10/04 11:37:37;;;;;;;;;;;17.70;99.90;;;;;;5029887;28;20440;-32
2023/10/04 11:40:05;;;;;;;;;;;17.70;99.90;;;;;;5029961;28;19929;-33
2023/10/04 11:42:32;;;;;;;;;;;17.80;99.90;;;;;;5031764;28;19928;-32
2023/10/04 11:44:58;;;;;;;;;;;17.80;99.90;;;;;;5030655;28;19948;-32
2023/10/04 11:47:28;;;;;;;;;;;17.80;99.90;;;;;;5031782;28;19925;-32
2023/10/04 11:49:55;;;;;;;;;;;17.80;99.90;;;;;;5031980;28;20007;-33
2023/10/04 11:52:22;;;;;;;;;;;17.80;99.90;;;;;;5031172;28;19975;-32
2023/10/04 11:54:53;;;;;;;;;;;17.80;99.90;;;;;;5032105;28;19925;-32
2023/10/04 11:57:24;;;;;;;;;;;17.80;99.90;;;;;;5031422;28;19932;-33
2023/10/04 11:59:50;;;;;;;;;;;17.80;99.90;;;;;;5031480;28;19929;-33
2023/10/04 12:02:17;;;;;;;;;;;17.70;99.90;;;;;;5031147;28;20344;-32
2023/10/04 12:04:45;;;;;;;;;;;17.70;99.90;;;;;;5031305;28;20004;-33
2023/10/04 12:07:12;;;;;;;;;;;17.70;99.90;;;;;;5031256;28;19932;-33
2023/10/04 12:09:38;;;;;;;;;;;17.70;99.90;;;;;;5032182;28;20422;-32
2023/10/04 12:12:06;;;;;;;;;;;17.70;99.90;;;;;;5031075;28;19925;-32
2023/10/04 12:14:34;;;;;;;;;;;17.70;99.90;;;;;;5032287;28;19925;-33
2023/10/04 12:17:03;;;;;;;;;;;17.70;99.90;;;;;;5034603;28;19924;-32
2023/10/04 12:19:31;;;;;;;;;;;17.70;99.90;;;;;;5035947;28;19925;-33
2023/10/04 12:21:59;;;;;;;;;;;17.70;99.90;;;;;;5035517;28;20470;-33
2023/10/04 12:24:26;;;;;;;;;;;17.80;99.90;;;;;;5035007;28;20407;-32
2023/10/04 12:26:55;;;;;;;;;;;17.80;99.90;;;;;;5034592;28;19924;-33
2023/10/04 12:29:23;;;;;;;;;;;17.80;99.90;;;;;;5034836;28;19932;-33
2023/10/04 12:31:50;;;;;;;;;;;17.90;99.90;;;;;;5035671;28;20400;-33
2023/10/04 12:34:17;;;;;;;;;;;17.90;99.90;;;;;;5035810;28;20361;-32
2023/10/04 12:36:44;;;;;;;;;;;18.00;99.90;;;;;;5034172;28;20442;-34
2023/10/04 12:39:15;;;;;;;;;;;18.00;99.90;;;;;;5035873;28;19932;-32
2023/10/04 12:41:41;;;;;;;;;;;18.00;99.90;;;;;;5034764;28;19929;-32
2023/10/04 12:44:08;;;;;;;;;;;18.00;99.90;;;;;;5034679;28;19925;-33
2023/10/04 12:46:37;;;;;;;;;;;17.90;99.90;;;;;;5034515;28;19925;-32
2023/10/04 12:49:04;;;;;;;;;;;17.90;99.90;;;;;;5034368;28;19929;-32
2023/10/04 12:51:31;;;;;;;;;;;17.90;99.90;;;;;;5035061;28;19931;-33
2023/10/04 12:53:59;;;;;;;;;;;17.90;99.90;;;;;;5034172;28;20407;-32
2023/10/04 12:56:26;;;;;;;;;;;18.00;99.90;;;;;;5033976;28;19966;-32
2023/10/04 12:58:53;;;;;;;;;;;18.00;99.90;;;;;;5034278;28;19964;-32
2023/10/04 13:01:21;;;;;;;;;;;18.00;99.90;;;;;;5034166;28;20360;-32
2023/10/04 13:03:49;;;;;;;;;;;18.10;99.90;;;;;;5034023;28;19937;-31
2023/10/04 13:06:15;;;;;;;;;;;18.10;99.90;;;;;;5033987;28;19925;-32
2023/10/04 13:08:42;;;;;;;;;;;18.10;99.90;;;;;;5034169;28;20032;-32
2023/10/04 13:11:11;;;;;;;;;;;18.10;99.90;;;;;;5034025;28;19975;-32
2023/10/04 13:13:38;;;;;;;;;;;18.20;99.90;;;;;;5034805;28;20379;-32
2023/10/04 13:16:05;;;;;;;;;;;18.30;99.90;;;;;;5033761;28;20434;-32
2023/10/04 13:18:32;;;;;;;;;;;18.40;99.90;;;;;;5033848;28;19975;-32
2023/10/04 13:21:00;;;;;;;;;;;18.40;99.90;;;;;;5034437;28;19937;-32
2023/10/04 13:23:27;;;;;;;;;;;18.50;99.90;;;;;;5034960;28;20379;-33
2023/10/04 13:25:54;;;;;;;;;;;18.50;99.90;;;;;;5033501;28;20304;-33
2023/10/04 13:28:23;;;;;;;;;;;18.40;99.90;;;;;;5032822;28;19924;-32
2023/10/04 13:30:50;;;;;;;;;;;18.40;99.90;;;;;;5034517;28;19932;-33
2023/10/04 13:33:17;;;;;;;;;;;18.40;99.90;;;;;;5034470;28;19929;-32
2023/10/04 13:35:44;;;;;;;;;;;18.30;99.90;;;;;;5033490;28;19925;-34
2023/10/04 13:38:14;;;;;;;;;;;18.30;99.90;;;;;;5033602;28;19971;-32
2023/10/04 13:40:41;;;;;;;;;;;18.20;99.90;;;;;;5033625;28;19932;-33
2023/10/04 13:43:10;;;;;;;;;;;18.20;99.90;;;;;;5033454;28;20361;-33
2023/10/04 13:45:36;;;;;;;;;;;18.20;99.90;;;;;;5033532;28;19948;-33
2023/10/04 13:48:09;;;;;;;;;;;18.10;99.90;;;;;;5033225;28;19925;-34
2023/10/04 13:50:37;;;;;;;;;;;18.10;99.90;;;;;;5066873;28;19932;-32
2023/10/04 13:53:04;;;;;;;;;;;18.10;99.90;;;;;;5034068;28;20399;-33
2023/10/04 13:55:32;;;;;;;;;;;18.10;99.90;;;;;;5034211;28;19925;-33
2023/10/04 13:58:00;;;;;;;;;;;18.10;99.90;;;;;;5066255;28;19929;-32
2023/10/04 14:00:26;;;;;;;;;;;18.10;99.90;;;;;;5033049;28;19925;-32
2023/10/04 14:02:54;;;;;;;;;;;18.10;99.90;;;;;;5033963;28;19929;-33
2023/10/04 14:05:21;;;;;;;;;;;18.10;99.90;;;;;;5033170;28;20395;-32
2023/10/04 14:07:51;;;;;;;;;;;18.10;99.90;;;;;;5033946;28;19933;-33
2023/10/04 14:10:22;;;;;;;;;;;18.10;99.90;;;;;;5034036;28;19929;-32
2023/10/04 14:12:52;;;;;;;;;;;18.10;99.90;;;;;;5033724;28;20360;-33
2023/10/04 14:15:19;;;;;;;;;;;18.00;99.90;;;;;;5032608;28;19925;-32
2023/10/04 14:17:46;;;;;;;;;;;18.00;99.90;;;;;;5065814;28;19936;-33
2023/10/04 14:20:14;;;;;;;;;;;18.00;99.90;;;;;;5032655;28;19925;-33